Pointe-Lebel, Canada
Current Conditions -  °F | °C
As of 1:00 AM on Thursday 27 Nov 2014 (Local Time) from CYBC Reporting Station
Overcast Overcast  
Wind Chill: 15°   Ceiling: 4000
Heat Index: 25°   Visibility: 9mi
Dew Point: 12°   Wind: 10mph
Humidity: 59%   Direction: 30°NNE
Pressure: 30.14"   Gusts: 17mph
Location:  49.15°N, 68.2°W
Report Text: CYBC 270600Z AUTO 03009G15KT 9SM BKN040 OVC140 M04/M11 A3014 RMK SLP206
Loading
Personal Weather Stations






























Interactive Weather Map New forecast layout! Learn more

10-Day Weather Forecast

Advertisements
Track Severe Weather on mobile